BEL2HV EBBR-LIRN
Flight info
| Callsign | BEL2HV |
|---|---|
| Flight time | 2h 5m |
| Altitude | 35000 |
| Route | SOPOK Y863 OGLOR DCT EMGOD L607 ABUKA DCT TEDGO DCT UTABA DCT BEMKI DCT ELMEM DCT DIRAB DCT ROKIB DCT CHI DCT SUXUB DCT ERIKA |
| Aircraft | A320/M-SDE3FGHIRWY/LB1 |
Departure
| Time | 2026-05-05 06:40 |
|---|---|
| Airport | Brussels Airport (EBBR) |
Arrival
| Time | 2026-05-05 08:45 |
|---|---|
| Airport | Naples International Airport (LIRN) |
| Time | Latitude | Longitude | Altitude | Speed | Heading |
|---|---|---|---|---|---|
| 2026-05-05 06:21 | 50.90435 | 4.48672 | 136 ft | 0 kts | 155° |
| 2026-05-05 06:22 | 50.90428 | 4.48677 | 117 ft | 0 kts | 155° |
| 2026-05-05 06:34 | 50.90432 | 4.48675 | 121 ft | 3 kts | 155° |
| 2026-05-05 06:34 | 50.90456 | 4.48657 | 142 ft | 4 kts | 154° |
| 2026-05-05 06:34 | 50.90480 | 4.48638 | 117 ft | 4 kts | 149° |
| 2026-05-05 06:34 | 50.90501 | 4.48613 | 116 ft | 4 kts | 119° |
| 2026-05-05 06:35 | 50.90505 | 4.48592 | 116 ft | 0 kts | 65° |
| 2026-05-05 06:36 | 50.90512 | 4.48613 | 117 ft | 7 kts | 65° |
| 2026-05-05 06:37 | 50.90549 | 4.48744 | 119 ft | 19 kts | 65° |
| 2026-05-05 06:37 | 50.90609 | 4.48945 | 117 ft | 21 kts | 64° |
| 2026-05-05 06:37 | 50.90683 | 4.49101 | 121 ft | 15 kts | 5° |
| 2026-05-05 06:37 | 50.90758 | 4.49193 | 120 ft | 15 kts | 66° |
| 2026-05-05 06:38 | 50.90803 | 4.49347 | 119 ft | 17 kts | 65° |
| 2026-05-05 06:38 | 50.90863 | 4.49551 | 122 ft | 22 kts | 67° |
| 2026-05-05 06:38 | 50.90924 | 4.49771 | 123 ft | 19 kts | 65° |
| 2026-05-05 06:38 | 50.91022 | 4.49898 | 119 ft | 17 kts | 18° |
| 2026-05-05 06:39 | 50.91126 | 4.49927 | 120 ft | 14 kts | 327° |
| 2026-05-05 06:39 | 50.91124 | 4.49839 | 118 ft | 0 kts | 245° |
| 2026-05-05 06:39 | 50.91112 | 4.49798 | 118 ft | 16 kts | 245° |
| 2026-05-05 06:39 | 50.90966 | 4.49276 | 119 ft | 86 kts | 244° |
| 2026-05-05 06:40 | 50.90631 | 4.48128 | 121 ft | 141 kts | 245° |
| 2026-05-05 06:40 | 50.90181 | 4.46561 | 360 ft | 160 kts | 250° |
| 2026-05-05 06:40 | 50.89725 | 4.44926 | 906 ft | 161 kts | 250° |
| 2026-05-05 06:40 | 50.89261 | 4.43279 | 1443 ft | 165 kts | 248° |
| 2026-05-05 06:41 | 50.88766 | 4.41653 | 1919 ft | 169 kts | 236° |
| 2026-05-05 06:41 | 50.87814 | 4.40637 | 2348 ft | 171 kts | 189° |
| 2026-05-05 06:41 | 50.86658 | 4.40759 | 2795 ft | 166 kts | 152° |
| 2026-05-05 06:41 | 50.85766 | 4.41844 | 3234 ft | 161 kts | 123° |
| 2026-05-05 06:42 | 50.85065 | 4.43322 | 3462 ft | 178 kts | 123° |
| 2026-05-05 06:42 | 50.84261 | 4.45013 | 3511 ft | 207 kts | 123° |
| 2026-05-05 06:42 | 50.83378 | 4.46854 | 3993 ft | 211 kts | 124° |
| 2026-05-05 06:42 | 50.82497 | 4.48677 | 4553 ft | 212 kts | 124° |
| 2026-05-05 06:43 | 50.81594 | 4.50534 | 5090 ft | 213 kts | 124° |
| 2026-05-05 06:43 | 50.80686 | 4.52400 | 5601 ft | 216 kts | 124° |
| 2026-05-05 06:43 | 50.79769 | 4.54287 | 6112 ft | 218 kts | 124° |
| 2026-05-05 06:43 | 50.78798 | 4.56284 | 6345 ft | 241 kts | 125° |
| 2026-05-05 06:44 | 50.77741 | 4.58461 | 6639 ft | 264 kts | 125° |
| 2026-05-05 06:44 | 50.76589 | 4.60830 | 7201 ft | 276 kts | 125° |
| 2026-05-05 06:44 | 50.75402 | 4.63258 | 7959 ft | 281 kts | 125° |
| 2026-05-05 06:44 | 50.74173 | 4.65686 | 8766 ft | 285 kts | 128° |
| 2026-05-05 06:45 | 50.72871 | 4.68072 | 9553 ft | 289 kts | 129° |
| 2026-05-05 06:45 | 50.71526 | 4.70459 | 10249 ft | 296 kts | 129° |
| 2026-05-05 06:45 | 50.70193 | 4.73035 | 10451 ft | 318 kts | 123° |
| 2026-05-05 06:45 | 50.69051 | 4.76155 | 10623 ft | 339 kts | 112° |
| 2026-05-05 06:46 | 50.68235 | 4.79758 | 10797 ft | 357 kts | 105° |
| 2026-05-05 06:46 | 50.67508 | 4.83556 | 11324 ft | 365 kts | 105° |
| 2026-05-05 06:46 | 50.66760 | 4.87427 | 11968 ft | 370 kts | 105° |
| 2026-05-05 06:46 | 50.65997 | 4.91328 | 12647 ft | 374 kts | 106° |
| 2026-05-05 06:47 | 50.65218 | 4.95282 | 13304 ft | 378 kts | 106° |
| 2026-05-05 06:47 | 50.64440 | 4.99211 | 13907 ft | 382 kts | 106° |
| 2026-05-05 06:47 | 50.63642 | 5.03228 | 14485 ft | 386 kts | 106° |
| 2026-05-05 06:47 | 50.62837 | 5.07270 | 15071 ft | 388 kts | 107° |
| 2026-05-05 06:48 | 50.62026 | 5.11350 | 15665 ft | 391 kts | 107° |
| 2026-05-05 06:48 | 50.61213 | 5.15457 | 16250 ft | 394 kts | 107° |
| 2026-05-05 06:48 | 50.60390 | 5.19589 | 16832 ft | 397 kts | 107° |
| 2026-05-05 06:48 | 50.59555 | 5.23760 | 17416 ft | 400 kts | 107° |
| 2026-05-05 06:49 | 50.58635 | 5.27915 | 17974 ft | 403 kts | 116° |
| 2026-05-05 06:49 | 50.56990 | 5.31415 | 18450 ft | 406 kts | 137° |
| 2026-05-05 06:49 | 50.54861 | 5.34368 | 18914 ft | 409 kts | 139° |
| 2026-05-05 06:49 | 50.52728 | 5.37355 | 19386 ft | 412 kts | 138° |
| 2026-05-05 06:50 | 50.50599 | 5.40415 | 19842 ft | 415 kts | 137° |
| 2026-05-05 06:50 | 50.48476 | 5.43520 | 20283 ft | 418 kts | 137° |
| 2026-05-05 06:50 | 50.46347 | 5.46661 | 20737 ft | 421 kts | 137° |
| 2026-05-05 06:50 | 50.44214 | 5.49814 | 21155 ft | 423 kts | 137° |
| 2026-05-05 06:51 | 50.42058 | 5.52991 | 21581 ft | 425 kts | 137° |
| 2026-05-05 06:51 | 50.39892 | 5.56172 | 21995 ft | 428 kts | 137° |
| 2026-05-05 06:51 | 50.37712 | 5.59360 | 22407 ft | 430 kts | 137° |
| 2026-05-05 06:51 | 50.35546 | 5.62515 | 22803 ft | 432 kts | 138° |
| 2026-05-05 06:52 | 50.33332 | 5.65729 | 23202 ft | 434 kts | 138° |
| 2026-05-05 06:52 | 50.31109 | 5.68949 | 23583 ft | 436 kts | 138° |
| 2026-05-05 06:52 | 50.28882 | 5.72187 | 23912 ft | 437 kts | 136° |
| 2026-05-05 06:52 | 50.26874 | 5.75789 | 24236 ft | 440 kts | 127° |
| 2026-05-05 06:53 | 50.25287 | 5.79836 | 24542 ft | 444 kts | 118° |
| 2026-05-05 06:53 | 50.24128 | 5.84321 | 24842 ft | 448 kts | 108° |
| 2026-05-05 06:53 | 50.23319 | 5.89046 | 25133 ft | 450 kts | 107° |
| 2026-05-05 06:53 | 50.22522 | 5.93801 | 25408 ft | 452 kts | 107° |
| 2026-05-05 06:54 | 50.21715 | 5.98575 | 25680 ft | 454 kts | 107° |
| 2026-05-05 06:54 | 50.20911 | 6.03300 | 25932 ft | 456 kts | 107° |
| 2026-05-05 06:54 | 50.20089 | 6.08094 | 26181 ft | 458 kts | 107° |
| 2026-05-05 06:54 | 50.19264 | 6.12918 | 26432 ft | 461 kts | 107° |
| 2026-05-05 06:55 | 50.18633 | 6.17852 | 26661 ft | 465 kts | 99° |
| 2026-05-05 06:55 | 50.18481 | 6.22922 | 26878 ft | 470 kts | 90° |
| 2026-05-05 06:55 | 50.18750 | 6.28034 | 27085 ft | 474 kts | 86° |
| 2026-05-05 06:55 | 50.19078 | 6.33160 | 27292 ft | 476 kts | 86° |
| 2026-05-05 06:56 | 50.19404 | 6.38311 | 27524 ft | 477 kts | 86° |
| 2026-05-05 06:56 | 50.19724 | 6.43467 | 27821 ft | 477 kts | 86° |
| 2026-05-05 06:56 | 50.20040 | 6.48613 | 28127 ft | 477 kts | 87° |
| 2026-05-05 06:56 | 50.20351 | 6.53705 | 28409 ft | 477 kts | 87° |
| 2026-05-05 06:57 | 50.20660 | 6.58871 | 28707 ft | 477 kts | 87° |
| 2026-05-05 06:57 | 50.20935 | 6.64035 | 28995 ft | 476 kts | 90° |
| 2026-05-05 06:57 | 50.20901 | 6.69197 | 29282 ft | 474 kts | 94° |
| 2026-05-05 06:57 | 50.20810 | 6.74290 | 29572 ft | 474 kts | 94° |
| 2026-05-05 06:58 | 50.20720 | 6.79445 | 29874 ft | 474 kts | 94° |
| 2026-05-05 06:58 | 50.20628 | 6.84599 | 30129 ft | 475 kts | 95° |
| 2026-05-05 06:58 | 50.20531 | 6.89766 | 30374 ft | 475 kts | 95° |
| 2026-05-05 06:58 | 50.20432 | 6.94928 | 30620 ft | 476 kts | 95° |
| 2026-05-05 06:59 | 50.20330 | 7.00107 | 30869 ft | 476 kts | 95° |
| 2026-05-05 06:59 | 50.20225 | 7.05274 | 31106 ft | 476 kts | 95° |
| 2026-05-05 06:59 | 50.20120 | 7.10443 | 31341 ft | 477 kts | 95° |
| 2026-05-05 06:59 | 50.20015 | 7.15630 | 31596 ft | 477 kts | 95° |
| 2026-05-05 07:00 | 50.19906 | 7.20801 | 31844 ft | 477 kts | 96° |
| 2026-05-05 07:00 | 50.19795 | 7.25933 | 32107 ft | 477 kts | 96° |
| 2026-05-05 07:00 | 50.19585 | 7.31092 | 32356 ft | 474 kts | 102° |
| 2026-05-05 07:00 | 50.18946 | 7.36111 | 32608 ft | 469 kts | 111° |
| 2026-05-05 07:01 | 50.17948 | 7.40937 | 32878 ft | 466 kts | 114° |
| 2026-05-05 07:01 | 50.16919 | 7.45748 | 33148 ft | 466 kts | 114° |
| 2026-05-05 07:01 | 50.15902 | 7.50535 | 33439 ft | 465 kts | 114° |
| 2026-05-05 07:01 | 50.14890 | 7.55330 | 33712 ft | 465 kts | 114° |
| 2026-05-05 07:02 | 50.13880 | 7.60111 | 33968 ft | 464 kts | 114° |
| 2026-05-05 07:02 | 50.12883 | 7.64817 | 34216 ft | 463 kts | 114° |
| 2026-05-05 07:02 | 50.11868 | 7.69581 | 34451 ft | 462 kts | 114° |
| 2026-05-05 07:02 | 50.10852 | 7.74328 | 34686 ft | 461 kts | 114° |
| 2026-05-05 07:03 | 50.09835 | 7.79067 | 34843 ft | 461 kts | 114° |
| 2026-05-05 07:03 | 50.07728 | 7.88548 | 34884 ft | 461 kts | 119° |
| 2026-05-05 07:04 | 50.04552 | 7.97052 | 34895 ft | 452 kts | 130° |
| 2026-05-05 07:04 | 50.02202 | 8.02424 | 34898 ft | 452 kts | 130° |
| 2026-05-05 07:05 | 50.00499 | 8.06243 | 34908 ft | 451 kts | 131° |
| 2026-05-05 07:05 | 49.96944 | 8.14291 | 34902 ft | 451 kts | 129° |
| 2026-05-05 07:06 | 49.93472 | 8.22366 | 34901 ft | 452 kts | 129° |
| 2026-05-05 07:06 | 49.89955 | 8.30464 | 34897 ft | 451 kts | 129° |
| 2026-05-05 07:07 | 49.87000 | 8.37149 | 34890 ft | 451 kts | 130° |
| 2026-05-05 07:07 | 49.82317 | 8.45620 | 34868 ft | 442 kts | 142° |
| 2026-05-05 07:08 | 49.78563 | 8.51079 | 34861 ft | 442 kts | 142° |
| 2026-05-05 07:08 | 49.74024 | 8.57386 | 34858 ft | 437 kts | 149° |
| 2026-05-05 07:09 | 49.68687 | 8.61540 | 34860 ft | 425 kts | 167° |
| 2026-05-05 07:09 | 49.62929 | 8.63340 | 34863 ft | 421 kts | 174° |
| 2026-05-05 07:10 | 49.57200 | 8.64927 | 34869 ft | 421 kts | 173° |
| 2026-05-05 07:10 | 49.51433 | 8.66545 | 34869 ft | 421 kts | 173° |
| 2026-05-05 07:11 | 49.45705 | 8.68567 | 34869 ft | 426 kts | 163° |
| 2026-05-05 07:11 | 49.40249 | 8.72308 | 34864 ft | 428 kts | 160° |
| 2026-05-05 07:12 | 49.34850 | 8.76062 | 34862 ft | 428 kts | 160° |
| 2026-05-05 07:12 | 49.29410 | 8.79819 | 34859 ft | 429 kts | 160° |
| 2026-05-05 07:13 | 49.23959 | 8.83582 | 34858 ft | 429 kts | 160° |
| 2026-05-05 07:13 | 49.18535 | 8.87329 | 34855 ft | 429 kts | 160° |
| 2026-05-05 07:14 | 49.13089 | 8.91088 | 34854 ft | 429 kts | 160° |
| 2026-05-05 07:14 | 49.07631 | 8.94828 | 34852 ft | 429 kts | 160° |
| 2026-05-05 07:15 | 49.02163 | 8.98561 | 34859 ft | 430 kts | 160° |
| 2026-05-05 07:15 | 48.96734 | 9.02279 | 34862 ft | 430 kts | 160° |
| 2026-05-05 07:16 | 48.91270 | 9.06013 | 34872 ft | 429 kts | 160° |
| 2026-05-05 07:16 | 48.85818 | 9.09719 | 34876 ft | 429 kts | 160° |
| 2026-05-05 07:17 | 48.80370 | 9.13417 | 34879 ft | 429 kts | 160° |
| 2026-05-05 07:17 | 48.74955 | 9.17084 | 34886 ft | 428 kts | 160° |
| 2026-05-05 07:18 | 48.69508 | 9.20758 | 34889 ft | 428 kts | 160° |
| 2026-05-05 07:18 | 48.64054 | 9.24424 | 34892 ft | 428 kts | 160° |
| 2026-05-05 07:19 | 48.58596 | 9.27926 | 34882 ft | 426 kts | 163° |
| 2026-05-05 07:19 | 48.53020 | 9.31014 | 34878 ft | 426 kts | 165° |
| 2026-05-05 07:20 | 48.47463 | 9.33978 | 34880 ft | 426 kts | 164° |
| 2026-05-05 07:20 | 48.41893 | 9.37050 | 34869 ft | 426 kts | 163° |
| 2026-05-05 07:21 | 48.36335 | 9.40161 | 34851 ft | 426 kts | 163° |
| 2026-05-05 07:21 | 48.30760 | 9.43257 | 34868 ft | 426 kts | 163° |
| 2026-05-05 07:22 | 48.25303 | 9.46793 | 34864 ft | 432 kts | 153° |
| 2026-05-05 07:22 | 48.20522 | 9.52287 | 34866 ft | 437 kts | 145° |
| 2026-05-05 07:23 | 48.15825 | 9.58093 | 34878 ft | 437 kts | 145° |
| 2026-05-05 07:23 | 48.11116 | 9.63872 | 34875 ft | 437 kts | 145° |
| 2026-05-05 07:24 | 48.06699 | 9.69273 | 34881 ft | 437 kts | 145° |
| 2026-05-05 07:24 | 48.01979 | 9.75035 | 34877 ft | 438 kts | 145° |
| 2026-05-05 07:25 | 47.97249 | 9.80800 | 34875 ft | 438 kts | 145° |
| 2026-05-05 07:25 | 47.92545 | 9.86522 | 34875 ft | 438 kts | 145° |
| 2026-05-05 07:26 | 47.87804 | 9.92275 | 34880 ft | 439 kts | 146° |
| 2026-05-05 07:26 | 47.83060 | 9.98004 | 34881 ft | 439 kts | 146° |
| 2026-05-05 07:27 | 47.78302 | 10.03741 | 34879 ft | 440 kts | 146° |
| 2026-05-05 07:27 | 47.73565 | 10.09445 | 34880 ft | 440 kts | 146° |
| 2026-05-05 07:28 | 47.68808 | 10.15156 | 34879 ft | 440 kts | 146° |
| 2026-05-05 07:28 | 47.64042 | 10.20874 | 34873 ft | 441 kts | 146° |
| 2026-05-05 07:29 | 47.59255 | 10.26603 | 34873 ft | 441 kts | 146° |
| 2026-05-05 07:29 | 47.54367 | 10.32104 | 34872 ft | 438 kts | 151° |
| 2026-05-05 07:30 | 47.49296 | 10.37025 | 34869 ft | 438 kts | 151° |
| 2026-05-05 07:30 | 47.41632 | 10.44457 | 34876 ft | 440 kts | 151° |
| 2026-05-05 07:31 | 47.36492 | 10.49422 | 34879 ft | 441 kts | 151° |
| 2026-05-05 07:31 | 47.31370 | 10.54357 | 34881 ft | 441 kts | 150° |
| 2026-05-05 07:32 | 47.26247 | 10.59361 | 34891 ft | 442 kts | 149° |
| 2026-05-05 07:32 | 47.21252 | 10.64617 | 34910 ft | 444 kts | 148° |
| 2026-05-05 07:33 | 47.16273 | 10.69962 | 34915 ft | 443 kts | 148° |
| 2026-05-05 07:33 | 47.11252 | 10.75265 | 34928 ft | 443 kts | 148° |
| 2026-05-05 07:34 | 47.06221 | 10.80501 | 34941 ft | 443 kts | 148° |
| 2026-05-05 07:34 | 47.01224 | 10.85686 | 34955 ft | 442 kts | 148° |
| 2026-05-05 07:35 | 46.96199 | 10.90899 | 34978 ft | 442 kts | 148° |
| 2026-05-05 07:35 | 46.91172 | 10.96115 | 34994 ft | 442 kts | 148° |
| 2026-05-05 07:36 | 46.86144 | 11.01318 | 35005 ft | 442 kts | 148° |
| 2026-05-05 07:36 | 46.81110 | 11.06359 | 35005 ft | 439 kts | 154° |
| 2026-05-05 07:37 | 46.75666 | 11.10384 | 35013 ft | 437 kts | 156° |
| 2026-05-05 07:37 | 46.70209 | 11.14356 | 35009 ft | 437 kts | 156° |
| 2026-05-05 07:38 | 46.64795 | 11.18299 | 35003 ft | 437 kts | 156° |
| 2026-05-05 07:38 | 46.59347 | 11.22259 | 35004 ft | 437 kts | 156° |
| 2026-05-05 07:39 | 46.53893 | 11.26196 | 34994 ft | 437 kts | 156° |
| 2026-05-05 07:39 | 46.48431 | 11.30129 | 34994 ft | 437 kts | 156° |
| 2026-05-05 07:40 | 46.43009 | 11.34017 | 34989 ft | 437 kts | 156° |
| 2026-05-05 07:40 | 46.37547 | 11.37936 | 34991 ft | 438 kts | 156° |
| 2026-05-05 07:41 | 46.32077 | 11.41867 | 34991 ft | 438 kts | 156° |
| 2026-05-05 07:41 | 46.26597 | 11.45791 | 34991 ft | 439 kts | 156° |
| 2026-05-05 07:42 | 46.21144 | 11.49675 | 34999 ft | 439 kts | 156° |
| 2026-05-05 07:42 | 46.15643 | 11.53578 | 35014 ft | 440 kts | 156° |
| 2026-05-05 07:43 | 46.10144 | 11.57492 | 35013 ft | 440 kts | 156° |
| 2026-05-05 07:43 | 46.04681 | 11.61366 | 35013 ft | 440 kts | 157° |
| 2026-05-05 07:44 | 45.99162 | 11.65261 | 35016 ft | 441 kts | 157° |
| 2026-05-05 07:44 | 45.93653 | 11.69151 | 35015 ft | 441 kts | 157° |
| 2026-05-05 07:45 | 45.88160 | 11.72977 | 35016 ft | 441 kts | 157° |
| 2026-05-05 07:45 | 45.82613 | 11.76797 | 35013 ft | 442 kts | 158° |
| 2026-05-05 07:46 | 45.77068 | 11.80609 | 35011 ft | 442 kts | 158° |
| 2026-05-05 07:46 | 45.71516 | 11.84427 | 35009 ft | 442 kts | 158° |
| 2026-05-05 07:47 | 45.65995 | 11.88220 | 35008 ft | 443 kts | 158° |
| 2026-05-05 07:47 | 45.60423 | 11.92040 | 35009 ft | 444 kts | 158° |
| 2026-05-05 07:48 | 45.54840 | 11.95861 | 35007 ft | 444 kts | 158° |
| 2026-05-05 07:48 | 45.49290 | 11.99650 | 35012 ft | 445 kts | 158° |
| 2026-05-05 07:49 | 45.43699 | 12.03450 | 35012 ft | 445 kts | 158° |
| 2026-05-05 07:49 | 45.38097 | 12.07249 | 35014 ft | 445 kts | 158° |
| 2026-05-05 07:50 | 45.32524 | 12.11025 | 35011 ft | 446 kts | 158° |
| 2026-05-05 07:50 | 45.26899 | 12.14829 | 35011 ft | 446 kts | 158° |
| 2026-05-05 07:51 | 45.21283 | 12.18618 | 35010 ft | 447 kts | 158° |
| 2026-05-05 07:51 | 45.15663 | 12.22405 | 35005 ft | 447 kts | 158° |
| 2026-05-05 07:52 | 45.10067 | 12.26164 | 35009 ft | 447 kts | 158° |
| 2026-05-05 07:52 | 45.05381 | 12.29262 | 35007 ft | 447 kts | 159° |
| 2026-05-05 07:53 | 44.99672 | 12.32722 | 35005 ft | 446 kts | 161° |
| 2026-05-05 07:53 | 44.93919 | 12.36048 | 35009 ft | 446 kts | 161° |
| 2026-05-05 07:54 | 44.88171 | 12.39407 | 35012 ft | 447 kts | 161° |
| 2026-05-05 07:54 | 44.82424 | 12.42810 | 35010 ft | 447 kts | 161° |
| 2026-05-05 07:55 | 44.76727 | 12.46190 | 35008 ft | 447 kts | 161° |
| 2026-05-05 07:55 | 44.70981 | 12.49583 | 35011 ft | 447 kts | 161° |
| 2026-05-05 07:56 | 44.65237 | 12.52952 | 35010 ft | 447 kts | 161° |
| 2026-05-05 07:56 | 44.59515 | 12.56316 | 35014 ft | 448 kts | 161° |
| 2026-05-05 07:57 | 44.53750 | 12.59704 | 35012 ft | 448 kts | 161° |
| 2026-05-05 07:57 | 44.47989 | 12.63069 | 35015 ft | 448 kts | 161° |
| 2026-05-05 07:58 | 44.42227 | 12.66425 | 35017 ft | 448 kts | 161° |
| 2026-05-05 07:58 | 44.36506 | 12.69760 | 35029 ft | 448 kts | 161° |
| 2026-05-05 07:59 | 44.30729 | 12.73116 | 35025 ft | 449 kts | 161° |
| 2026-05-05 07:59 | 44.24950 | 12.76459 | 35035 ft | 449 kts | 161° |
| 2026-05-05 08:00 | 44.19215 | 12.79788 | 35037 ft | 449 kts | 161° |
| 2026-05-05 08:00 | 44.13438 | 12.83138 | 35031 ft | 450 kts | 161° |
| 2026-05-05 08:01 | 44.07641 | 12.86476 | 35035 ft | 450 kts | 161° |
| 2026-05-05 08:01 | 44.01879 | 12.89783 | 35038 ft | 451 kts | 161° |
| 2026-05-05 08:02 | 43.96063 | 12.93110 | 35031 ft | 452 kts | 161° |
| 2026-05-05 08:02 | 43.90240 | 12.96444 | 35028 ft | 453 kts | 161° |
| 2026-05-05 08:03 | 43.84409 | 12.99779 | 35019 ft | 453 kts | 161° |
| 2026-05-05 08:03 | 43.78611 | 13.03087 | 35023 ft | 454 kts | 161° |
| 2026-05-05 08:04 | 43.72755 | 13.06422 | 35029 ft | 455 kts | 161° |
| 2026-05-05 08:04 | 43.66903 | 13.09742 | 35032 ft | 455 kts | 161° |
| 2026-05-05 08:05 | 43.61045 | 13.13059 | 35038 ft | 455 kts | 162° |
| 2026-05-05 08:05 | 43.55178 | 13.16379 | 35040 ft | 455 kts | 162° |
| 2026-05-05 08:06 | 43.49327 | 13.19679 | 35038 ft | 456 kts | 162° |
| 2026-05-05 08:06 | 43.43451 | 13.22985 | 35033 ft | 456 kts | 162° |
| 2026-05-05 08:07 | 43.37558 | 13.26290 | 35029 ft | 457 kts | 162° |
| 2026-05-05 08:07 | 43.31662 | 13.29605 | 35025 ft | 458 kts | 162° |
| 2026-05-05 08:08 | 43.25763 | 13.32909 | 35027 ft | 458 kts | 163° |
| 2026-05-05 08:08 | 43.19852 | 13.36203 | 35024 ft | 459 kts | 163° |
| 2026-05-05 08:09 | 43.13973 | 13.39471 | 35028 ft | 459 kts | 163° |
| 2026-05-05 08:09 | 43.08048 | 13.42768 | 35029 ft | 460 kts | 163° |
| 2026-05-05 08:10 | 43.02105 | 13.46067 | 35027 ft | 460 kts | 164° |
| 2026-05-05 08:10 | 42.96198 | 13.49334 | 35038 ft | 460 kts | 164° |
| 2026-05-05 08:11 | 42.90261 | 13.52618 | 35039 ft | 460 kts | 165° |
| 2026-05-05 08:11 | 42.84324 | 13.55896 | 35047 ft | 460 kts | 165° |
| 2026-05-05 08:12 | 42.78378 | 13.59170 | 35047 ft | 460 kts | 165° |
| 2026-05-05 08:12 | 42.72442 | 13.62422 | 35047 ft | 459 kts | 165° |
| 2026-05-05 08:13 | 42.66506 | 13.65667 | 35050 ft | 460 kts | 166° |
| 2026-05-05 08:13 | 42.60560 | 13.68912 | 35052 ft | 460 kts | 166° |
| 2026-05-05 08:14 | 42.54632 | 13.72142 | 35047 ft | 461 kts | 166° |
| 2026-05-05 08:14 | 42.48660 | 13.75401 | 35046 ft | 462 kts | 166° |
| 2026-05-05 08:15 | 42.42670 | 13.78660 | 35041 ft | 463 kts | 166° |
| 2026-05-05 08:15 | 42.36716 | 13.81885 | 35039 ft | 464 kts | 166° |
| 2026-05-05 08:16 | 42.30699 | 13.85152 | 35042 ft | 465 kts | 166° |
| 2026-05-05 08:16 | 42.24681 | 13.88401 | 35043 ft | 466 kts | 166° |
| 2026-05-05 08:17 | 42.18651 | 13.91645 | 35045 ft | 466 kts | 166° |
| 2026-05-05 08:17 | 42.12644 | 13.94868 | 35052 ft | 468 kts | 166° |
| 2026-05-05 08:18 | 42.06587 | 13.98119 | 35077 ft | 468 kts | 166° |
| 2026-05-05 08:18 | 42.03568 | 13.99739 | 34394 ft | 465 kts | 167° |
| 2026-05-05 08:18 | 42.00538 | 14.01359 | 32590 ft | 472 kts | 166° |
| 2026-05-05 08:19 | 41.97458 | 14.02996 | 30834 ft | 476 kts | 165° |
| 2026-05-05 08:19 | 41.94370 | 14.04643 | 28939 ft | 477 kts | 164° |
| 2026-05-05 08:19 | 41.91282 | 14.06088 | 27127 ft | 474 kts | 171° |
| 2026-05-05 08:19 | 41.88108 | 14.06919 | 26106 ft | 453 kts | 178° |
| 2026-05-05 08:20 | 41.85010 | 14.07177 | 24958 ft | 444 kts | 186° |
| 2026-05-05 08:20 | 41.81934 | 14.06819 | 24088 ft | 440 kts | 193° |
| 2026-05-05 08:20 | 41.78959 | 14.06223 | 23922 ft | 424 kts | 193° |
| 2026-05-05 08:20 | 41.76091 | 14.05677 | 23805 ft | 407 kts | 193° |
| 2026-05-05 08:21 | 41.73326 | 14.05169 | 23685 ft | 392 kts | 193° |
| 2026-05-05 08:21 | 41.70702 | 14.04692 | 23557 ft | 379 kts | 193° |
| 2026-05-05 08:21 | 41.68134 | 14.04225 | 23419 ft | 366 kts | 193° |
| 2026-05-05 08:21 | 41.65650 | 14.03772 | 23190 ft | 356 kts | 193° |
| 2026-05-05 08:22 | 41.63220 | 14.03322 | 22925 ft | 349 kts | 193° |
| 2026-05-05 08:22 | 41.60828 | 14.02869 | 22666 ft | 346 kts | 193° |
| 2026-05-05 08:22 | 41.58445 | 14.02415 | 22391 ft | 344 kts | 193° |
| 2026-05-05 08:22 | 41.56077 | 14.01968 | 22126 ft | 342 kts | 193° |
| 2026-05-05 08:23 | 41.53723 | 14.01528 | 21726 ft | 341 kts | 193° |
| 2026-05-05 08:23 | 41.51401 | 14.01094 | 21289 ft | 339 kts | 193° |
| 2026-05-05 08:23 | 41.49068 | 14.00657 | 20845 ft | 338 kts | 193° |
| 2026-05-05 08:23 | 41.46742 | 14.00225 | 20395 ft | 337 kts | 192° |
| 2026-05-05 08:24 | 41.44415 | 13.99796 | 19961 ft | 336 kts | 192° |
| 2026-05-05 08:24 | 41.42095 | 13.99368 | 19578 ft | 335 kts | 192° |
| 2026-05-05 08:24 | 41.39785 | 13.98941 | 19159 ft | 336 kts | 192° |
| 2026-05-05 08:24 | 41.37481 | 13.98516 | 18898 ft | 330 kts | 192° |
| 2026-05-05 08:25 | 41.35223 | 13.98098 | 18227 ft | 327 kts | 192° |
| 2026-05-05 08:25 | 41.32998 | 13.97686 | 17743 ft | 327 kts | 192° |
| 2026-05-05 08:25 | 41.30729 | 13.97407 | 17308 ft | 329 kts | 183° |
| 2026-05-05 08:25 | 41.28446 | 13.97827 | 16904 ft | 334 kts | 168° |
| 2026-05-05 08:26 | 41.26263 | 13.98908 | 16553 ft | 334 kts | 162° |
| 2026-05-05 08:26 | 41.24112 | 14.00071 | 16174 ft | 332 kts | 162° |
| 2026-05-05 08:26 | 41.21970 | 14.01217 | 15815 ft | 331 kts | 162° |
| 2026-05-05 08:26 | 41.19838 | 14.02352 | 15451 ft | 329 kts | 162° |
| 2026-05-05 08:27 | 41.17712 | 14.03485 | 15093 ft | 328 kts | 162° |
| 2026-05-05 08:27 | 41.15629 | 14.04598 | 14763 ft | 326 kts | 162° |
| 2026-05-05 08:27 | 41.13525 | 14.05720 | 14442 ft | 324 kts | 162° |
| 2026-05-05 08:27 | 41.11428 | 14.06837 | 14090 ft | 323 kts | 162° |
| 2026-05-05 08:28 | 41.09345 | 14.07946 | 13716 ft | 323 kts | 162° |
| 2026-05-05 08:28 | 41.07271 | 14.09051 | 13428 ft | 320 kts | 162° |
| 2026-05-05 08:28 | 41.05193 | 14.10156 | 13118 ft | 319 kts | 162° |
| 2026-05-05 08:28 | 41.03146 | 14.11249 | 12784 ft | 317 kts | 162° |
| 2026-05-05 08:29 | 41.01105 | 14.12337 | 12409 ft | 316 kts | 162° |
| 2026-05-05 08:29 | 40.99069 | 14.13422 | 12078 ft | 312 kts | 162° |
| 2026-05-05 08:29 | 40.97069 | 14.14320 | 11570 ft | 302 kts | 175° |
| 2026-05-05 08:30 | 40.93185 | 14.13367 | 10951 ft | 280 kts | 217° |
| 2026-05-05 08:30 | 40.91742 | 14.11684 | 10769 ft | 275 kts | 235° |
| 2026-05-05 08:30 | 40.90640 | 14.09633 | 10566 ft | 273 kts | 238° |
| 2026-05-05 08:30 | 40.89552 | 14.07577 | 10351 ft | 272 kts | 238° |
| 2026-05-05 08:31 | 40.88463 | 14.05522 | 10150 ft | 271 kts | 237° |
| 2026-05-05 08:31 | 40.87395 | 14.03516 | 9939 ft | 270 kts | 237° |
| 2026-05-05 08:31 | 40.86312 | 14.01486 | 9763 ft | 261 kts | 237° |
| 2026-05-05 08:31 | 40.85297 | 13.99584 | 9631 ft | 251 kts | 237° |
| 2026-05-05 08:32 | 40.84308 | 13.97734 | 9484 ft | 241 kts | 237° |
| 2026-05-05 08:32 | 40.83351 | 13.95948 | 9269 ft | 234 kts | 237° |
| 2026-05-05 08:32 | 40.82406 | 13.94188 | 9150 ft | 234 kts | 237° |
| 2026-05-05 08:32 | 40.81476 | 13.92454 | 9091 ft | 234 kts | 237° |
| 2026-05-05 08:33 | 40.80532 | 13.90691 | 8981 ft | 234 kts | 237° |
| 2026-05-05 08:33 | 40.79588 | 13.88936 | 8839 ft | 234 kts | 237° |
| 2026-05-05 08:33 | 40.78649 | 13.87187 | 8699 ft | 233 kts | 237° |
| 2026-05-05 08:33 | 40.77712 | 13.85435 | 8556 ft | 233 kts | 237° |
| 2026-05-05 08:34 | 40.76783 | 13.83708 | 8410 ft | 232 kts | 237° |
| 2026-05-05 08:34 | 40.75845 | 13.81967 | 8164 ft | 231 kts | 237° |
| 2026-05-05 08:34 | 40.74913 | 13.80239 | 7996 ft | 231 kts | 237° |
| 2026-05-05 08:34 | 40.73980 | 13.78508 | 7836 ft | 231 kts | 237° |
| 2026-05-05 08:35 | 40.73050 | 13.76775 | 7679 ft | 231 kts | 237° |
| 2026-05-05 08:35 | 40.72124 | 13.75048 | 7519 ft | 231 kts | 237° |
| 2026-05-05 08:35 | 40.71196 | 13.73325 | 7370 ft | 230 kts | 234° |
| 2026-05-05 08:35 | 40.69968 | 13.72035 | 7215 ft | 227 kts | 202° |
| 2026-05-05 08:36 | 40.68414 | 13.71941 | 7059 ft | 234 kts | 166° |
| 2026-05-05 08:36 | 40.66979 | 13.73008 | 6885 ft | 241 kts | 148° |
| 2026-05-05 08:36 | 40.65609 | 13.74280 | 6714 ft | 241 kts | 148° |
| 2026-05-05 08:36 | 40.64244 | 13.75558 | 6541 ft | 240 kts | 147° |
| 2026-05-05 08:37 | 40.63086 | 13.77143 | 6362 ft | 244 kts | 118° |
| 2026-05-05 08:37 | 40.62730 | 13.79308 | 6185 ft | 245 kts | 84° |
| 2026-05-05 08:37 | 40.63304 | 13.81392 | 6020 ft | 243 kts | 50° |
| 2026-05-05 08:37 | 40.64052 | 13.82483 | 5910 ft | 243 kts | 44° |
| 2026-05-05 08:38 | 40.65458 | 13.84811 | 5691 ft | 245 kts | 54° |
| 2026-05-05 08:38 | 40.66100 | 13.86070 | 5579 ft | 245 kts | 56° |
| 2026-05-05 08:38 | 40.67086 | 13.87895 | 5419 ft | 244 kts | 51° |
| 2026-05-05 08:38 | 40.68097 | 13.89693 | 5269 ft | 244 kts | 53° |
| 2026-05-05 08:39 | 40.69063 | 13.91504 | 5119 ft | 244 kts | 54° |
| 2026-05-05 08:39 | 40.70029 | 13.93342 | 4965 ft | 244 kts | 54° |
| 2026-05-05 08:39 | 40.70994 | 13.95178 | 4805 ft | 242 kts | 55° |
| 2026-05-05 08:39 | 40.71957 | 13.97007 | 4652 ft | 243 kts | 55° |
| 2026-05-05 08:40 | 40.72920 | 13.98838 | 4505 ft | 242 kts | 55° |
| 2026-05-05 08:40 | 40.73877 | 14.00659 | 4352 ft | 241 kts | 55° |
| 2026-05-05 08:40 | 40.74829 | 14.02472 | 4203 ft | 240 kts | 55° |
| 2026-05-05 08:40 | 40.75763 | 14.04252 | 4056 ft | 239 kts | 55° |
| 2026-05-05 08:41 | 40.76710 | 14.06056 | 3884 ft | 238 kts | 56° |
| 2026-05-05 08:41 | 40.77650 | 14.07850 | 3715 ft | 237 kts | 56° |
| 2026-05-05 08:41 | 40.78585 | 14.09635 | 3546 ft | 236 kts | 56° |
| 2026-05-05 08:41 | 40.79516 | 14.11411 | 3363 ft | 235 kts | 56° |
| 2026-05-05 08:42 | 40.80429 | 14.13157 | 3194 ft | 227 kts | 56° |
| 2026-05-05 08:42 | 40.81308 | 14.14836 | 3042 ft | 216 kts | 56° |
| 2026-05-05 08:42 | 40.82138 | 14.16423 | 2793 ft | 206 kts | 57° |
| 2026-05-05 08:42 | 40.82944 | 14.17965 | 2443 ft | 198 kts | 57° |
| 2026-05-05 08:43 | 40.83700 | 14.19413 | 2149 ft | 185 kts | 57° |
| 2026-05-05 08:43 | 40.84401 | 14.20754 | 1878 ft | 170 kts | 57° |
| 2026-05-05 08:43 | 40.85053 | 14.22004 | 1621 ft | 161 kts | 57° |
| 2026-05-05 08:43 | 40.85662 | 14.23172 | 1372 ft | 152 kts | 57° |
| 2026-05-05 08:44 | 40.86249 | 14.24295 | 1134 ft | 145 kts | 56° |
| 2026-05-05 08:44 | 40.86803 | 14.25388 | 876 ft | 141 kts | 57° |
| 2026-05-05 08:44 | 40.87347 | 14.26435 | 700 ft | 137 kts | 56° |
| 2026-05-05 08:44 | 40.87852 | 14.27488 | 471 ft | 134 kts | 57° |
| 2026-05-05 08:45 | 40.88345 | 14.28530 | 298 ft | 130 kts | 59° |
| 2026-05-05 08:45 | 40.88768 | 14.29423 | 255 ft | 84 kts | 58° |
| 2026-05-05 08:45 | 40.88945 | 14.29798 | 246 ft | 34 kts | 57° |
| 2026-05-05 08:45 | 40.89074 | 14.30060 | 237 ft | 18 kts | 63° |
| 2026-05-05 08:46 | 40.89008 | 14.30162 | 235 ft | 21 kts | 148° |
| 2026-05-05 08:46 | 40.88945 | 14.30161 | 236 ft | 6 kts | 230° |
| 2026-05-05 08:46 | 40.88888 | 14.30067 | 239 ft | 20 kts | 231° |
| 2026-05-05 08:46 | 40.88793 | 14.29905 | 244 ft | 25 kts | 232° |
| 2026-05-05 08:47 | 40.88684 | 14.29714 | 250 ft | 26 kts | 233° |
| 2026-05-05 08:47 | 40.88577 | 14.29527 | 256 ft | 25 kts | 233° |
| 2026-05-05 08:47 | 40.88473 | 14.29342 | 262 ft | 25 kts | 233° |
| 2026-05-05 08:47 | 40.88367 | 14.29167 | 268 ft | 24 kts | 232° |
| 2026-05-05 08:48 | 40.88266 | 14.28990 | 273 ft | 26 kts | 232° |
| 2026-05-05 08:48 | 40.88158 | 14.28803 | 279 ft | 26 kts | 233° |
| 2026-05-05 08:48 | 40.88052 | 14.28617 | 285 ft | 25 kts | 233° |
| 2026-05-05 08:48 | 40.87946 | 14.28449 | 291 ft | 21 kts | 240° |
| 2026-05-05 08:49 | 40.87944 | 14.28311 | 293 ft | 10 kts | 252° |
| 2026-05-05 08:49 | 40.87895 | 14.28287 | 295 ft | 6 kts | 186° |
| 2026-05-05 08:49 | 40.87881 | 14.28285 | 295 ft | 0 kts | 186° |